sensor_id;sensor_type;location;lat;lon;timestamp;temperature;humidity
17619;DHT22;8928;51.678;6.074;2023-01-29T00:01:21;-2.30;99.90
17619;DHT22;8928;51.678;6.074;2023-01-29T00:04:08;-2.30;99.90
17619;DHT22;8928;51.678;6.074;2023-01-29T00:06:55;-2.20;99.90
17619;DHT22;8928;51.678;6.074;2023-01-29T00:09:42;-2.20;99.90
17619;DHT22;8928;51.678;6.074;2023-01-29T00:12:29;-2.30;99.90
17619;DHT22;8928;51.678;6.074;2023-01-29T00:15:16;-2.30;99.90
17619;DHT22;8928;51.678;6.074;2023-01-29T00:18:06;-2.40;99.90
17619;DHT22;8928;51.678;6.074;2023-01-29T00:20:54;-2.50;99.90
17619;DHT22;8928;51.678;6.074;2023-01-29T00:23:41;-2.50;99.90
17619;DHT22;8928;51.678;6.074;2023-01-29T00:26:28;-2.60;99.90
17619;DHT22;8928;51.678;6.074;2023-01-29T00:29:15;-2.70;99.90
17619;DHT22;8928;51.678;6.074;2023-01-29T00:32:03;-2.80;99.90
17619;DHT22;8928;51.678;6.074;2023-01-29T00:34:51;-2.80;99.90
17619;DHT22;8928;51.678;6.074;2023-01-29T00:37:38;-2.80;99.90
17619;DHT22;8928;51.678;6.074;2023-01-29T00:40:26;-2.90;99.90
17619;DHT22;8928;51.678;6.074;2023-01-29T00:43:13;-2.90;99.90
17619;DHT22;8928;51.678;6.074;2023-01-29T00:46:17;-3.00;99.90
17619;DHT22;8928;51.678;6.074;2023-01-29T00:49:05;-3.00;99.90
17619;DHT22;8928;51.678;6.074;2023-01-29T00:51:53;-3.10;99.90
17619;DHT22;8928;51.678;6.074;2023-01-29T00:54:59;-3.10;99.90
17619;DHT22;8928;51.678;6.074;2023-01-29T00:57:46;-3.10;99.90
17619;DHT22;8928;51.678;6.074;2023-01-29T01:00:33;-3.20;99.90
17619;DHT22;8928;51.678;6.074;2023-01-29T01:03:20;-3.20;99.90
17619;DHT22;8928;51.678;6.074;2023-01-29T01:06:08;-3.20;99.90
17619;DHT22;8928;51.678;6.074;2023-01-29T01:08:57;-3.30;99.90
17619;DHT22;8928;51.678;6.074;2023-01-29T01:12:01;-3.40;99.90
17619;DHT22;8928;51.678;6.074;2023-01-29T01:14:48;-3.40;99.90
17619;DHT22;8928;51.678;6.074;2023-01-29T01:17:36;-3.50;99.90
17619;DHT22;8928;51.678;6.074;2023-01-29T01:20:23;-3.50;99.90
17619;DHT22;8928;51.678;6.074;2023-01-29T01:23:10;-3.50;99.90
17619;DHT22;8928;51.678;6.074;2023-01-29T01:25:58;-3.50;99.90
17619;DHT22;8928;51.678;6.074;2023-01-29T01:28:46;-3.50;99.90
17619;DHT22;8928;51.678;6.074;2023-01-29T01:31:33;-3.50;99.90
17619;DHT22;8928;51.678;6.074;2023-01-29T01:34:20;-3.50;99.90
17619;DHT22;8928;51.678;6.074;2023-01-29T01:37:07;-3.60;99.90
17619;DHT22;8928;51.678;6.074;2023-01-29T01:39:54;-3.60;99.90
17619;DHT22;8928;51.678;6.074;2023-01-29T01:42:44;-3.60;99.90
17619;DHT22;8928;51.678;6.074;2023-01-29T01:45:34;-3.60;99.90
17619;DHT22;8928;51.678;6.074;2023-01-29T01:48:23;-3.60;99.90
17619;DHT22;8928;51.678;6.074;2023-01-29T01:51:12;-3.60;99.90
17619;DHT22;8928;51.678;6.074;2023-01-29T01:54:02;-3.60;99.90
17619;DHT22;8928;51.678;6.074;2023-01-29T01:56:54;-3.50;99.90
17619;DHT22;8928;51.678;6.074;2023-01-29T01:59:53;-3.50;99.90
17619;DHT22;8928;51.678;6.074;2023-01-29T02:02:45;-3.50;99.90
17619;DHT22;8928;51.678;6.074;2023-01-29T02:05:52;-3.50;99.90
17619;DHT22;8928;51.678;6.074;2023-01-29T02:09:02;-3.50;99.90
17619;DHT22;8928;51.678;6.074;2023-01-29T02:12:10;-3.60;99.90
17619;DHT22;8928;51.678;6.074;2023-01-29T02:14:59;-3.60;99.90
17619;DHT22;8928;51.678;6.074;2023-01-29T02:17:46;-3.60;99.90
17619;DHT22;8928;51.678;6.074;2023-01-29T02:20:34;-3.60;99.90
17619;DHT22;8928;51.678;6.074;2023-01-29T02:23:54;-3.60;99.90
17619;DHT22;8928;51.678;6.074;2023-01-29T02:27:02;-3.70;99.90
17619;DHT22;8928;51.678;6.074;2023-01-29T02:29:57;-3.80;99.90
17619;DHT22;8928;51.678;6.074;2023-01-29T02:32:52;-3.80;99.90
17619;DHT22;8928;51.678;6.074;2023-01-29T02:35:49;-3.80;99.90
17619;DHT22;8928;51.678;6.074;2023-01-29T02:38:46;-3.80;99.90
17619;DHT22;8928;51.678;6.074;2023-01-29T02:41:40;-3.80;99.90
17619;DHT22;8928;51.678;6.074;2023-01-29T02:44:33;-3.80;99.90
17619;DHT22;8928;51.678;6.074;2023-01-29T02:47:29;-3.80;99.90
17619;DHT22;8928;51.678;6.074;2023-01-29T02:50:22;-3.70;99.90
17619;DHT22;8928;51.678;6.074;2023-01-29T02:53:14;-3.70;99.90
17619;DHT22;8928;51.678;6.074;2023-01-29T02:56:08;-3.70;99.90
17619;DHT22;8928;51.678;6.074;2023-01-29T02:58:59;-3.60;99.90
17619;DHT22;8928;51.678;6.074;2023-01-29T03:01:52;-3.50;99.90
17619;DHT22;8928;51.678;6.074;2023-01-29T03:04:46;-3.40;99.90
17619;DHT22;8928;51.678;6.074;2023-01-29T03:07:37;-3.40;99.90
17619;DHT22;8928;51.678;6.074;2023-01-29T03:10:34;-3.20;99.90
17619;DHT22;8928;51.678;6.074;2023-01-29T03:13:29;-3.20;99.90
17619;DHT22;8928;51.678;6.074;2023-01-29T03:16:21;-3.10;99.90
17619;DHT22;8928;51.678;6.074;2023-01-29T03:19:12;-3.00;99.90
17619;DHT22;8928;51.678;6.074;2023-01-29T03:22:04;-2.90;99.90
17619;DHT22;8928;51.678;6.074;2023-01-29T03:24:56;-2.90;99.90
17619;DHT22;8928;51.678;6.074;2023-01-29T03:28:03;-2.80;99.90
17619;DHT22;8928;51.678;6.074;2023-01-29T03:31:11;-2.70;99.90
17619;DHT22;8928;51.678;6.074;2023-01-29T03:34:21;-2.70;99.90
17619;DHT22;8928;51.678;6.074;2023-01-29T03:37:18;-2.60;99.90
17619;DHT22;8928;51.678;6.074;2023-01-29T03:40:08;-2.50;99.90
17619;DHT22;8928;51.678;6.074;2023-01-29T03:43:06;-2.40;99.90
17619;DHT22;8928;51.678;6.074;2023-01-29T03:46:01;-2.40;99.90
17619;DHT22;8928;51.678;6.074;2023-01-29T03:48:54;-2.30;99.90
17619;DHT22;8928;51.678;6.074;2023-01-29T03:51:52;-2.20;99.90
17619;DHT22;8928;51.678;6.074;2023-01-29T03:54:52;-2.20;99.90
17619;DHT22;8928;51.678;6.074;2023-01-29T03:57:45;-2.10;99.90
17619;DHT22;8928;51.678;6.074;2023-01-29T04:00:41;-2.00;99.90
17619;DHT22;8928;51.678;6.074;2023-01-29T04:03:32;-2.10;99.90
17619;DHT22;8928;51.678;6.074;2023-01-29T04:06:23;-2.00;99.90
17619;DHT22;8928;51.678;6.074;2023-01-29T04:09:15;-2.00;99.90
17619;DHT22;8928;51.678;6.074;2023-01-29T04:12:07;-1.90;99.90
17619;DHT22;8928;51.678;6.074;2023-01-29T04:14:56;-1.90;99.90
17619;DHT22;8928;51.678;6.074;2023-01-29T04:17:47;-1.90;99.90
17619;DHT22;8928;51.678;6.074;2023-01-29T04:20:36;-1.80;99.90
17619;DHT22;8928;51.678;6.074;2023-01-29T04:23:25;-1.80;99.90
17619;DHT22;8928;51.678;6.074;2023-01-29T04:26:24;-1.80;99.90
17619;DHT22;8928;51.678;6.074;2023-01-29T04:29:28;-1.80;99.90
17619;DHT22;8928;51.678;6.074;2023-01-29T04:32:22;-1.70;99.90
17619;DHT22;8928;51.678;6.074;2023-01-29T04:35:20;-1.70;99.90
17619;DHT22;8928;51.678;6.074;2023-01-29T04:38:12;-1.60;99.90
17619;DHT22;8928;51.678;6.074;2023-01-29T04:41:05;-1.60;99.90
17619;DHT22;8928;51.678;6.074;2023-01-29T04:44:00;-1.60;99.90
17619;DHT22;8928;51.678;6.074;2023-01-29T04:46:56;-1.60;99.90
17619;DHT22;8928;51.678;6.074;2023-01-29T04:49:53;-1.60;99.90
17619;DHT22;8928;51.678;6.074;2023-01-29T04:52:48;-1.50;99.90
17619;DHT22;8928;51.678;6.074;2023-01-29T04:55:40;-1.50;99.90
17619;DHT22;8928;51.678;6.074;2023-01-29T04:58:32;-1.50;99.90
17619;DHT22;8928;51.678;6.074;2023-01-29T05:01:22;-1.50;99.90
17619;DHT22;8928;51.678;6.074;2023-01-29T05:04:13;-1.50;99.90
17619;DHT22;8928;51.678;6.074;2023-01-29T05:07:03;-1.40;99.90
17619;DHT22;8928;51.678;6.074;2023-01-29T05:09:52;-1.40;99.90
17619;DHT22;8928;51.678;6.074;2023-01-29T05:12:43;-1.40;99.90
17619;DHT22;8928;51.678;6.074;2023-01-29T05:15:36;-1.40;99.90
17619;DHT22;8928;51.678;6.074;2023-01-29T05:18:23;-1.30;99.90
17619;DHT22;8928;51.678;6.074;2023-01-29T05:21:12;-1.30;99.90
17619;DHT22;8928;51.678;6.074;2023-01-29T05:24:09;-1.30;99.90
17619;DHT22;8928;51.678;6.074;2023-01-29T05:26:57;-1.30;99.90
17619;DHT22;8928;51.678;6.074;2023-01-29T05:30:01;-1.20;99.90
17619;DHT22;8928;51.678;6.074;2023-01-29T05:32:48;-1.20;99.90
17619;DHT22;8928;51.678;6.074;2023-01-29T05:35:35;-1.10;99.90
17619;DHT22;8928;51.678;6.074;2023-01-29T05:38:24;-1.10;99.90
17619;DHT22;8928;51.678;6.074;2023-01-29T05:41:11;-1.10;99.90
17619;DHT22;8928;51.678;6.074;2023-01-29T05:43:58;-1.00;99.90
17619;DHT22;8928;51.678;6.074;2023-01-29T05:46:45;-1.00;99.90
17619;DHT22;8928;51.678;6.074;2023-01-29T05:49:32;-1.00;99.90
17619;DHT22;8928;51.678;6.074;2023-01-29T05:52:19;-1.00;99.90
17619;DHT22;8928;51.678;6.074;2023-01-29T05:55:08;-0.90;99.90
17619;DHT22;8928;51.678;6.074;2023-01-29T05:57:56;-0.90;99.90
17619;DHT22;8928;51.678;6.074;2023-01-29T06:00:43;-0.90;99.90
17619;DHT22;8928;51.678;6.074;2023-01-29T06:03:30;-0.90;99.90
17619;DHT22;8928;51.678;6.074;2023-01-29T06:06:17;-0.90;99.90
17619;DHT22;8928;51.678;6.074;2023-01-29T06:09:04;-0.80;99.90
17619;DHT22;8928;51.678;6.074;2023-01-29T06:11:52;-0.80;99.90
17619;DHT22;8928;51.678;6.074;2023-01-29T06:14:39;-0.80;99.90
17619;DHT22;8928;51.678;6.074;2023-01-29T06:17:26;-0.80;99.90
17619;DHT22;8928;51.678;6.074;2023-01-29T06:20:13;-0.80;99.90
17619;DHT22;8928;51.678;6.074;2023-01-29T06:23:00;-0.80;99.90
17619;DHT22;8928;51.678;6.074;2023-01-29T06:25:47;-0.70;99.90
17619;DHT22;8928;51.678;6.074;2023-01-29T06:28:35;-0.70;99.90
17619;DHT22;8928;51.678;6.074;2023-01-29T06:31:22;-0.70;99.90
17619;DHT22;8928;51.678;6.074;2023-01-29T06:34:09;-0.70;99.90
17619;DHT22;8928;51.678;6.074;2023-01-29T06:36:56;-0.70;99.90
17619;DHT22;8928;51.678;6.074;2023-01-29T06:39:43;-0.70;99.90
17619;DHT22;8928;51.678;6.074;2023-01-29T06:42:30;-0.70;99.90
17619;DHT22;8928;51.678;6.074;2023-01-29T06:45:19;-0.70;99.90
17619;DHT22;8928;51.678;6.074;2023-01-29T06:48:06;-0.70;99.90
17619;DHT22;8928;51.678;6.074;2023-01-29T06:50:52;-0.70;99.90
17619;DHT22;8928;51.678;6.074;2023-01-29T06:53:40;-0.60;99.90
17619;DHT22;8928;51.678;6.074;2023-01-29T06:56:27;-0.60;99.90
17619;DHT22;8928;51.678;6.074;2023-01-29T06:59:14;-0.60;99.90
17619;DHT22;8928;51.678;6.074;2023-01-29T07:02:03;-0.60;99.90
17619;DHT22;8928;51.678;6.074;2023-01-29T07:04:50;-0.60;99.90
17619;DHT22;8928;51.678;6.074;2023-01-29T07:07:37;-0.60;99.90
17619;DHT22;8928;51.678;6.074;2023-01-29T07:10:24;-0.60;99.90
17619;DHT22;8928;51.678;6.074;2023-01-29T07:13:11;-0.60;99.90
17619;DHT22;8928;51.678;6.074;2023-01-29T07:15:59;-0.60;99.90
17619;DHT22;8928;51.678;6.074;2023-01-29T07:18:47;-0.60;99.90
17619;DHT22;8928;51.678;6.074;2023-01-29T07:21:34;-0.50;99.90
17619;DHT22;8928;51.678;6.074;2023-01-29T07:24:22;-0.50;99.90
17619;DHT22;8928;51.678;6.074;2023-01-29T07:27:09;-0.50;99.90
17619;DHT22;8928;51.678;6.074;2023-01-29T07:29:56;-0.50;99.90
17619;DHT22;8928;51.678;6.074;2023-01-29T07:32:43;-0.50;99.90
17619;DHT22;8928;51.678;6.074;2023-01-29T07:35:35;-0.50;99.90
17619;DHT22;8928;51.678;6.074;2023-01-29T07:38:22;-0.40;99.90
17619;DHT22;8928;51.678;6.074;2023-01-29T07:41:10;-0.40;99.90
17619;DHT22;8928;51.678;6.074;2023-01-29T07:43:57;-0.40;99.90
17619;DHT22;8928;51.678;6.074;2023-01-29T07:46:44;-0.30;99.90
17619;DHT22;8928;51.678;6.074;2023-01-29T07:49:31;-0.30;99.90
17619;DHT22;8928;51.678;6.074;2023-01-29T07:52:19;-0.30;99.90
17619;DHT22;8928;51.678;6.074;2023-01-29T07:55:07;-0.30;99.90
17619;DHT22;8928;51.678;6.074;2023-01-29T07:57:55;-0.30;99.90
17619;DHT22;8928;51.678;6.074;2023-01-29T08:00:42;-0.20;99.90
17619;DHT22;8928;51.678;6.074;2023-01-29T08:03:29;-0.20;99.90
17619;DHT22;8928;51.678;6.074;2023-01-29T08:06:16;-0.20;99.90
17619;DHT22;8928;51.678;6.074;2023-01-29T08:09:05;-0.10;99.90
17619;DHT22;8928;51.678;6.074;2023-01-29T08:11:53;-0.10;99.90
17619;DHT22;8928;51.678;6.074;2023-01-29T08:14:40;-0.10;99.90
17619;DHT22;8928;51.678;6.074;2023-01-29T08:17:27;-0.10;99.90
17619;DHT22;8928;51.678;6.074;2023-01-29T08:20:14;-0.10;99.90
17619;DHT22;8928;51.678;6.074;2023-01-29T08:23:03;-0.10;99.90
17619;DHT22;8928;51.678;6.074;2023-01-29T08:25:51;-0.10;99.90
17619;DHT22;8928;51.678;6.074;2023-01-29T08:28:39;0.00;99.90
17619;DHT22;8928;51.678;6.074;2023-01-29T08:31:26;0.10;99.90
17619;DHT22;8928;51.678;6.074;2023-01-29T08:34:14;0.10;99.90
17619;DHT22;8928;51.678;6.074;2023-01-29T08:37:01;0.20;99.90
17619;DHT22;8928;51.678;6.074;2023-01-29T08:39:48;0.30;99.90
17619;DHT22;8928;51.678;6.074;2023-01-29T08:42:36;0.40;99.90
17619;DHT22;8928;51.678;6.074;2023-01-29T08:45:23;0.40;99.90
17619;DHT22;8928;51.678;6.074;2023-01-29T08:48:10;0.40;99.90
17619;DHT22;8928;51.678;6.074;2023-01-29T08:50:58;0.50;99.90
17619;DHT22;8928;51.678;6.074;2023-01-29T08:53:45;0.60;99.90
17619;DHT22;8928;51.678;6.074;2023-01-29T08:56:32;0.60;99.90
17619;DHT22;8928;51.678;6.074;2023-01-29T08:59:20;0.60;99.90
17619;DHT22;8928;51.678;6.074;2023-01-29T09:02:09;0.60;99.90
17619;DHT22;8928;51.678;6.074;2023-01-29T09:04:56;0.70;99.90
17619;DHT22;8928;51.678;6.074;2023-01-29T09:07:43;0.70;99.90
17619;DHT22;8928;51.678;6.074;2023-01-29T09:10:30;0.70;99.90
17619;DHT22;8928;51.678;6.074;2023-01-29T09:13:17;0.80;99.90
17619;DHT22;8928;51.678;6.074;2023-01-29T09:16:06;0.90;99.90
17619;DHT22;8928;51.678;6.074;2023-01-29T09:18:53;0.90;99.90
17619;DHT22;8928;51.678;6.074;2023-01-29T09:21:40;0.90;99.90
17619;DHT22;8928;51.678;6.074;2023-01-29T09:24:27;1.00;99.90
17619;DHT22;8928;51.678;6.074;2023-01-29T09:27:14;1.10;99.90
17619;DHT22;8928;51.678;6.074;2023-01-29T09:30:01;1.20;99.90
17619;DHT22;8928;51.678;6.074;2023-01-29T09:32:50;1.20;99.90
17619;DHT22;8928;51.678;6.074;2023-01-29T09:35:39;1.20;99.90
17619;DHT22;8928;51.678;6.074;2023-01-29T09:38:26;1.30;99.90
17619;DHT22;8928;51.678;6.074;2023-01-29T09:41:23;1.30;99.90
17619;DHT22;8928;51.678;6.074;2023-01-29T09:44:18;1.30;99.90
17619;DHT22;8928;51.678;6.074;2023-01-29T09:47:12;1.30;99.90
17619;DHT22;8928;51.678;6.074;2023-01-29T09:50:04;1.30;99.90
17619;DHT22;8928;51.678;6.074;2023-01-29T09:52:56;1.30;99.90
17619;DHT22;8928;51.678;6.074;2023-01-29T09:55:48;1.30;99.90
17619;DHT22;8928;51.678;6.074;2023-01-29T09:58:38;1.40;99.90
17619;DHT22;8928;51.678;6.074;2023-01-29T10:01:31;1.50;99.90
17619;DHT22;8928;51.678;6.074;2023-01-29T10:04:41;1.50;99.90
17619;DHT22;8928;51.678;6.074;2023-01-29T10:11:02;1.50;99.90
17619;DHT22;8928;51.678;6.074;2023-01-29T10:13:59;1.60;99.90
17619;DHT22;8928;51.678;6.074;2023-01-29T10:17:02;1.60;99.90
17619;DHT22;8928;51.678;6.074;2023-01-29T10:20:01;1.70;99.90
17619;DHT22;8928;51.678;6.074;2023-01-29T10:23:06;1.70;99.90
17619;DHT22;8928;51.678;6.074;2023-01-29T10:26:01;1.70;99.90
17619;DHT22;8928;51.678;6.074;2023-01-29T10:28:50;1.70;99.90
17619;DHT22;8928;51.678;6.074;2023-01-29T10:31:39;1.70;99.90
17619;DHT22;8928;51.678;6.074;2023-01-29T10:34:29;1.80;99.90
17619;DHT22;8928;51.678;6.074;2023-01-29T10:37:19;1.80;99.90
17619;DHT22;8928;51.678;6.074;2023-01-29T10:40:17;1.90;99.90
17619;DHT22;8928;51.678;6.074;2023-01-29T10:43:13;1.90;99.90
17619;DHT22;8928;51.678;6.074;2023-01-29T10:46:11;1.90;99.90
17619;DHT22;8928;51.678;6.074;2023-01-29T10:49:12;1.90;99.90
17619;DHT22;8928;51.678;6.074;2023-01-29T10:52:14;1.90;99.90
17619;DHT22;8928;51.678;6.074;2023-01-29T10:55:13;2.00;99.90
17619;DHT22;8928;51.678;6.074;2023-01-29T10:58:09;1.90;99.90
17619;DHT22;8928;51.678;6.074;2023-01-29T11:01:00;2.00;99.90
17619;DHT22;8928;51.678;6.074;2023-01-29T11:03:55;2.10;99.90
17619;DHT22;8928;51.678;6.074;2023-01-29T11:06:43;2.10;99.90
17619;DHT22;8928;51.678;6.074;2023-01-29T11:09:33;2.20;99.90
17619;DHT22;8928;51.678;6.074;2023-01-29T11:12:22;2.20;99.90
17619;DHT22;8928;51.678;6.074;2023-01-29T11:15:18;2.30;99.90
17619;DHT22;8928;51.678;6.074;2023-01-29T11:18:07;2.40;99.90
17619;DHT22;8928;51.678;6.074;2023-01-29T11:21:00;2.40;99.90
17619;DHT22;8928;51.678;6.074;2023-01-29T11:23:48;2.40;99.90
17619;DHT22;8928;51.678;6.074;2023-01-29T11:26:38;2.40;99.90
17619;DHT22;8928;51.678;6.074;2023-01-29T11:29:42;2.50;99.90
17619;DHT22;8928;51.678;6.074;2023-01-29T11:32:33;2.40;99.90
17619;DHT22;8928;51.678;6.074;2023-01-29T11:35:22;2.50;99.90
17619;DHT22;8928;51.678;6.074;2023-01-29T11:38:18;2.60;99.90
17619;DHT22;8928;51.678;6.074;2023-01-29T11:41:09;2.60;99.90
17619;DHT22;8928;51.678;6.074;2023-01-29T11:44:01;2.60;99.90
17619;DHT22;8928;51.678;6.074;2023-01-29T11:46:49;2.70;99.90
17619;DHT22;8928;51.678;6.074;2023-01-29T11:49:38;2.70;99.90
17619;DHT22;8928;51.678;6.074;2023-01-29T11:52:34;2.80;99.90
17619;DHT22;8928;51.678;6.074;2023-01-29T11:55:23;2.90;99.90
17619;DHT22;8928;51.678;6.074;2023-01-29T11:58:15;2.90;99.90
17619;DHT22;8928;51.678;6.074;2023-01-29T12:01:03;2.80;99.90
17619;DHT22;8928;51.678;6.074;2023-01-29T12:03:52;2.80;99.90
17619;DHT22;8928;51.678;6.074;2023-01-29T12:06:43;2.80;99.90
17619;DHT22;8928;51.678;6.074;2023-01-29T12:09:33;2.80;99.90
17619;DHT22;8928;51.678;6.074;2023-01-29T12:12:30;2.80;99.90
17619;DHT22;8928;51.678;6.074;2023-01-29T12:15:21;2.70;99.90
17619;DHT22;8928;51.678;6.074;2023-01-29T12:18:13;2.70;99.90
17619;DHT22;8928;51.678;6.074;2023-01-29T12:21:04;2.70;99.90
17619;DHT22;8928;51.678;6.074;2023-01-29T12:23:58;2.80;99.90
17619;DHT22;8928;51.678;6.074;2023-01-29T12:26:50;2.70;99.90
17619;DHT22;8928;51.678;6.074;2023-01-29T12:29:43;2.80;99.90
17619;DHT22;8928;51.678;6.074;2023-01-29T12:32:38;2.90;99.90
17619;DHT22;8928;51.678;6.074;2023-01-29T12:35:30;2.90;99.90
17619;DHT22;8928;51.678;6.074;2023-01-29T12:38:19;2.90;99.90
17619;DHT22;8928;51.678;6.074;2023-01-29T12:41:22;2.90;99.90
17619;DHT22;8928;51.678;6.074;2023-01-29T12:44:14;2.80;99.90
17619;DHT22;8928;51.678;6.074;2023-01-29T12:47:05;2.90;99.90
17619;DHT22;8928;51.678;6.074;2023-01-29T12:49:54;2.90;99.90
17619;DHT22;8928;51.678;6.074;2023-01-29T12:52:45;2.90;99.90
17619;DHT22;8928;51.678;6.074;2023-01-29T12:55:37;2.80;99.90
17619;DHT22;8928;51.678;6.074;2023-01-29T12:58:31;2.80;99.90
17619;DHT22;8928;51.678;6.074;2023-01-29T13:01:27;2.80;99.90
17619;DHT22;8928;51.678;6.074;2023-01-29T13:04:23;2.80;99.90
17619;DHT22;8928;51.678;6.074;2023-01-29T13:07:14;2.80;99.90
17619;DHT22;8928;51.678;6.074;2023-01-29T13:10:08;2.80;99.90
17619;DHT22;8928;51.678;6.074;2023-01-29T13:12:58;2.80;99.90
17619;DHT22;8928;51.678;6.074;2023-01-29T13:15:48;2.80;99.90
17619;DHT22;8928;51.678;6.074;2023-01-29T13:18:45;2.80;99.90
17619;DHT22;8928;51.678;6.074;2023-01-29T13:21:36;2.80;99.90
17619;DHT22;8928;51.678;6.074;2023-01-29T13:24:29;2.80;99.90
17619;DHT22;8928;51.678;6.074;2023-01-29T13:27:22;2.80;99.90
17619;DHT22;8928;51.678;6.074;2023-01-29T13:30:24;2.80;99.90
17619;DHT22;8928;51.678;6.074;2023-01-29T13:33:18;2.80;99.90
17619;DHT22;8928;51.678;6.074;2023-01-29T13:36:13;2.90;99.90
17619;DHT22;8928;51.678;6.074;2023-01-29T13:39:03;2.90;99.90
17619;DHT22;8928;51.678;6.074;2023-01-29T13:41:52;2.90;99.90
17619;DHT22;8928;51.678;6.074;2023-01-29T13:44:39;2.90;99.90
17619;DHT22;8928;51.678;6.074;2023-01-29T13:47:29;2.90;99.90
17619;DHT22;8928;51.678;6.074;2023-01-29T13:50:23;3.00;99.90
17619;DHT22;8928;51.678;6.074;2023-01-29T13:53:20;2.90;99.90
17619;DHT22;8928;51.678;6.074;2023-01-29T13:56:28;2.90;99.90
17619;DHT22;8928;51.678;6.074;2023-01-29T13:59:23;2.90;99.90
17619;DHT22;8928;51.678;6.074;2023-01-29T14:02:20;2.80;99.90
17619;DHT22;8928;51.678;6.074;2023-01-29T14:05:38;2.80;99.90
17619;DHT22;8928;51.678;6.074;2023-01-29T14:08:40;2.80;99.90
17619;DHT22;8928;51.678;6.074;2023-01-29T14:11:34;2.80;99.90
17619;DHT22;8928;51.678;6.074;2023-01-29T14:14:49;2.70;99.90
17619;DHT22;8928;51.678;6.074;2023-01-29T14:17:37;2.80;99.90
17619;DHT22;8928;51.678;6.074;2023-01-29T14:20:29;2.70;99.90
17619;DHT22;8928;51.678;6.074;2023-01-29T14:23:26;2.70;99.90
17619;DHT22;8928;51.678;6.074;2023-01-29T14:26:23;2.80;99.90
17619;DHT22;8928;51.678;6.074;2023-01-29T14:29:18;2.80;99.90
17619;DHT22;8928;51.678;6.074;2023-01-29T14:32:12;2.70;99.90
17619;DHT22;8928;51.678;6.074;2023-01-29T14:35:02;2.70;99.90
17619;DHT22;8928;51.678;6.074;2023-01-29T14:37:52;2.70;99.90
17619;DHT22;8928;51.678;6.074;2023-01-29T14:40:43;2.70;99.90
17619;DHT22;8928;51.678;6.074;2023-01-29T14:43:32;2.70;99.90
17619;DHT22;8928;51.678;6.074;2023-01-29T14:46:40;2.70;99.90
17619;DHT22;8928;51.678;6.074;2023-01-29T14:49:47;2.80;99.90
17619;DHT22;8928;51.678;6.074;2023-01-29T14:52:37;2.90;99.90
17619;DHT22;8928;51.678;6.074;2023-01-29T14:55:28;2.80;99.90
17619;DHT22;8928;51.678;6.074;2023-01-29T14:58:23;2.80;99.90
17619;DHT22;8928;51.678;6.074;2023-01-29T15:01:18;2.70;99.90
17619;DHT22;8928;51.678;6.074;2023-01-29T15:04:14;2.70;99.90
17619;DHT22;8928;51.678;6.074;2023-01-29T15:07:13;2.70;99.90
17619;DHT22;8928;51.678;6.074;2023-01-29T15:10:05;2.70;99.90
17619;DHT22;8928;51.678;6.074;2023-01-29T15:12:59;2.70;99.90
17619;DHT22;8928;51.678;6.074;2023-01-29T15:15:50;2.60;99.90
17619;DHT22;8928;51.678;6.074;2023-01-29T15:18:40;2.70;99.90
17619;DHT22;8928;51.678;6.074;2023-01-29T15:21:27;2.70;99.90
17619;DHT22;8928;51.678;6.074;2023-01-29T15:24:14;2.70;99.90
17619;DHT22;8928;51.678;6.074;2023-01-29T15:27:01;2.60;99.90
17619;DHT22;8928;51.678;6.074;2023-01-29T15:29:54;2.60;99.90
17619;DHT22;8928;51.678;6.074;2023-01-29T15:32:43;2.70;99.90
17619;DHT22;8928;51.678;6.074;2023-01-29T15:35:35;2.60;99.90
17619;DHT22;8928;51.678;6.074;2023-01-29T15:38:23;2.60;99.90
17619;DHT22;8928;51.678;6.074;2023-01-29T15:41:17;2.60;99.90
17619;DHT22;8928;51.678;6.074;2023-01-29T15:44:12;2.60;99.90
17619;DHT22;8928;51.678;6.074;2023-01-29T15:47:01;2.60;99.90
17619;DHT22;8928;51.678;6.074;2023-01-29T15:49:49;2.60;99.90
17619;DHT22;8928;51.678;6.074;2023-01-29T15:52:37;2.60;99.90
17619;DHT22;8928;51.678;6.074;2023-01-29T15:55:25;2.60;99.90
17619;DHT22;8928;51.678;6.074;2023-01-29T15:58:15;2.60;99.90
17619;DHT22;8928;51.678;6.074;2023-01-29T16:01:04;2.50;99.90
17619;DHT22;8928;51.678;6.074;2023-01-29T16:03:52;2.60;99.90
17619;DHT22;8928;51.678;6.074;2023-01-29T16:06:41;2.60;99.90
17619;DHT22;8928;51.678;6.074;2023-01-29T16:09:29;2.50;99.90
17619;DHT22;8928;51.678;6.074;2023-01-29T16:12:16;2.50;99.90
17619;DHT22;8928;51.678;6.074;2023-01-29T16:15:05;2.50;99.90
17619;DHT22;8928;51.678;6.074;2023-01-29T16:17:52;2.50;99.90
17619;DHT22;8928;51.678;6.074;2023-01-29T16:20:43;2.50;99.90
17619;DHT22;8928;51.678;6.074;2023-01-29T16:23:35;2.50;99.90
17619;DHT22;8928;51.678;6.074;2023-01-29T16:26:28;2.50;99.90
17619;DHT22;8928;51.678;6.074;2023-01-29T16:29:18;2.50;99.90
17619;DHT22;8928;51.678;6.074;2023-01-29T16:32:08;2.50;99.90
17619;DHT22;8928;51.678;6.074;2023-01-29T16:34:57;2.50;99.90
17619;DHT22;8928;51.678;6.074;2023-01-29T16:37:47;2.50;99.90
17619;DHT22;8928;51.678;6.074;2023-01-29T16:40:36;2.50;99.90
17619;DHT22;8928;51.678;6.074;2023-01-29T16:43:45;2.50;99.90
17619;DHT22;8928;51.678;6.074;2023-01-29T16:46:35;2.50;99.90
17619;DHT22;8928;51.678;6.074;2023-01-29T16:49:43;2.50;99.90
17619;DHT22;8928;51.678;6.074;2023-01-29T16:52:31;2.50;99.90
17619;DHT22;8928;51.678;6.074;2023-01-29T16:55:23;2.50;99.90
17619;DHT22;8928;51.678;6.074;2023-01-29T16:58:15;2.50;99.90
17619;DHT22;8928;51.678;6.074;2023-01-29T17:01:05;2.50;99.90
17619;DHT22;8928;51.678;6.074;2023-01-29T17:03:58;2.50;99.90
17619;DHT22;8928;51.678;6.074;2023-01-29T17:06:48;2.50;99.90
17619;DHT22;8928;51.678;6.074;2023-01-29T17:09:36;2.50;99.90
17619;DHT22;8928;51.678;6.074;2023-01-29T17:12:25;2.50;99.90
17619;DHT22;8928;51.678;6.074;2023-01-29T17:15:33;2.50;99.90
17619;DHT22;8928;51.678;6.074;2023-01-29T17:18:22;2.50;99.90
17619;DHT22;8928;51.678;6.074;2023-01-29T17:21:10;2.50;99.90
17619;DHT22;8928;51.678;6.074;2023-01-29T17:23:57;2.50;99.90
17619;DHT22;8928;51.678;6.074;2023-01-29T17:26:44;2.50;99.90
17619;DHT22;8928;51.678;6.074;2023-01-29T17:29:31;2.40;99.90
17619;DHT22;8928;51.678;6.074;2023-01-29T17:32:19;2.40;99.90
17619;DHT22;8928;51.678;6.074;2023-01-29T17:35:10;2.40;99.90
17619;DHT22;8928;51.678;6.074;2023-01-29T17:37:57;2.40;99.90
17619;DHT22;8928;51.678;6.074;2023-01-29T17:40:46;2.40;99.90
17619;DHT22;8928;51.678;6.074;2023-01-29T17:43:35;2.40;99.90
17619;DHT22;8928;51.678;6.074;2023-01-29T17:46:22;2.50;99.90
17619;DHT22;8928;51.678;6.074;2023-01-29T17:49:19;2.50;99.90
17619;DHT22;8928;51.678;6.074;2023-01-29T17:52:08;2.50;99.90
17619;DHT22;8928;51.678;6.074;2023-01-29T17:54:55;2.50;99.90
17619;DHT22;8928;51.678;6.074;2023-01-29T17:57:42;2.60;99.90
17619;DHT22;8928;51.678;6.074;2023-01-29T18:00:29;2.60;99.90
17619;DHT22;8928;51.678;6.074;2023-01-29T18:03:16;2.60;99.90
17619;DHT22;8928;51.678;6.074;2023-01-29T18:06:07;2.60;99.90
17619;DHT22;8928;51.678;6.074;2023-01-29T18:08:55;2.60;99.90
17619;DHT22;8928;51.678;6.074;2023-01-29T18:11:42;2.60;99.90
17619;DHT22;8928;51.678;6.074;2023-01-29T18:14:29;2.60;99.90
17619;DHT22;8928;51.678;6.074;2023-01-29T18:17:16;2.60;99.90
17619;DHT22;8928;51.678;6.074;2023-01-29T18:20:25;2.70;99.90
17619;DHT22;8928;51.678;6.074;2023-01-29T18:23:13;2.70;99.90
17619;DHT22;8928;51.678;6.074;2023-01-29T18:26:01;2.70;99.90
17619;DHT22;8928;51.678;6.074;2023-01-29T18:28:48;2.70;99.90
17619;DHT22;8928;51.678;6.074;2023-01-29T18:31:35;2.70;99.90
17619;DHT22;8928;51.678;6.074;2023-01-29T18:34:22;2.70;99.90